• Join FlightAware (Why Join?)
  • Login
  • US Flag 
09:56PM EDT


 

Airport Tracker/Info


-or-


 

Live Flight TrackerFlight Track Log ✈ PDT4224 ✈ 23-Jun-2013 ✈ KCLT - KEWN

Flight Track Log - Related Links

Times and Time Zones

All times are in EDT time to prevent confusion due to time zone crossing. See the PDT4224 flight status page for this flight to view local times or setup timezone preferences in your user account.

Time Position Orientation Groundspeed Altitude Reporting Facility
EDT Latitude Longitude Course Direction KTS MPH feet Rate Location/Type
11:37PM 35.1978 -80.9633 90° East 146 168 1,600  Level Atlanta Center
11:38PM 35.1767 -80.9514 155° Southeast 155 178 2,700 1,320 Climbing Atlanta Center
11:39PM 35.1814 -80.8928 84° East 182 209 3,900 1,200 Climbing Atlanta Center
11:40PM 35.1833 -80.6709 90° East  Level FlightAware Approximate
11:40PM 35.1858 -80.8242 85° East 191 220 5,200  Level Atlanta Center
11:41PM 35.1833 -80.5691 90° East  Level FlightAware Approximate
11:41PM 35.1842 -80.7606 92° East 191 220 6,300  Level Atlanta Center
11:42PM 35.2000 -80.4769 90° East  Level FlightAware Approximate
11:42PM 35.1886 -80.6944 85° East 194 223 7,600  Level Atlanta Center
11:43PM 35.1889 -80.6308 90° East 189 217 8,800 1,080 Climbing Atlanta Center
11:44PM 35.1914 -80.5672 87° East 189 217 9,900 1,080 Climbing Atlanta Center
11:45PM 35.1936 -80.5011 88° East 194 223 11,000 1,020 Climbing Atlanta Center
11:46PM 35.1931 -80.4069 90° East 218 251 12,400 960 Climbing Atlanta Center
11:48PM 35.1997 -80.2917 86° East 198 228 14,000 780 Climbing Washington Center
11:49PM 35.2031 -80.2131 87° East 198 228 14,700 480 Climbing Washington Center
11:50PM 35.2036 -80.1394 89° East 223 257 15,000 60 Climbing Washington Center
11:51PM 35.2072 -80.0456 87° East 245 282 14,900 -60 Descending Washington Center
11:52PM 35.2083 -79.9617 89° East 258 297 14,900  Level Washington Center
11:53PM 35.2056 -79.8625 92° East 265 305 14,900  Level Washington Center
11:54PM 35.2022 -79.7783 93° East 272 313 14,900  Level Washington Center
11:55PM 35.1994 -79.6767 92° East 272 313 14,900  Level Washington Center
11:56PM 35.1961 -79.5925 93° East 272 313 14,900  Level Washington Center
11:57PM 35.1933 -79.4883 92° East 272 313 14,900  Level Washington Center
11:58PM 35.1897 -79.4067 93° East 272 313 14,900  Level Washington Center
11:59PM 35.1842 -79.3150 94° East 272 313 14,900  Level Washington Center
12:00AM 35.1808 -79.2208 92° East 272 313 14,900  Level Washington Center
12:01AM 35.1775 -79.1267 92° East 272 313 14,900  Level Washington Center
12:02AM 35.1742 -79.0250 92° East 277 319 14,900  Level Washington Center
12:03AM 35.1706 -78.9308 93° East 271 312 14,900  Level Washington Center
12:04AM 35.1669 -78.8392 93° East 276 318 14,900  Level Washington Center
12:05AM 35.1631 -78.7450 93° East 276 318 14,900  Level Washington Center
12:06AM 35.1567 -78.6658 96° East 270 311 14,900  Level Washington Center
12:07AM 35.1528 -78.5744 93° East 270 311 14,900 -240 Level Washington Center
12:08AM 35.1469 -78.4800 94° East 275 316 14,500 -720 Descending Washington Center
12:09AM 35.1428 -78.3833 93° East 275 316 13,500 -780 Descending Washington Center
12:10AM 35.1389 -78.2817 93° East 281 323 13,000 -540 Descending Washington Center
12:11AM 35.1350 -78.1825 93° East 288 331 12,500 -660 Descending Washington Center
12:12AM 35.1286 -78.0808 94° East 294 338 11,700 -960 Descending Washington Center
12:13AM 35.1244 -77.9842 93° East 294 338 10,700 -1,020 Descending Washington Center
12:14AM 35.1181 -77.8825 94° East 294 338 9,700 -1,020 Descending Washington Center
12:15AM 35.1136 -77.7858 93° East 288 331 8,700 -960 Descending Washington Center
12:16AM 35.1089 -77.6917 93° East 288 331 7,800 -960 Descending Washington Center
12:17AM 35.1064 -77.5978 92° East 283 326 6,800 -1,080 Descending Washington Center
12:18AM 35.1017 -77.5064 94° East 276 318 5,800 -1,140 Descending Washington Center
12:19AM 35.0969 -77.4044 93° East 276 318 4,600 -1,200 Descending Washington Center
12:20AM 35.0878 -77.3156 97° East 276 318 3,400 -1,020 Descending Washington Center
12:21AM 35.0808 -77.2317 96° East 265 305 2,600 -780 Descending Washington Center
12:22AM 35.0650 -77.1553 104° East 250 288 1,900 -420 Descending Washington Center
12:23AM 35.0533 -77.0814 101° East 242 278 1,800 -120 Descending Washington Center